Time;durP1;ratioP1;P1;durP2;ratioP2;P2;SDS_P1;SDS_P2;PMS_P1;PMS_P2;Temp;Humidity;BMP_temperature;BMP_pressure;BME280_temperature;BME280_humidity;BME280_pressure;Samples;Min_cycle;Max_cycle;Signal;HPM_P1;HPM_P2
2023/05/13 00:00:13;;;;;;;13.00;9.13;;;14.30;99.90;;;;;;4973930;28;20122;-78
2023/05/13 00:02:38;;;;;;;19.13;9.45;;;14.30;99.90;;;;;;4975278;28;20093;-78
2023/05/13 00:05:04;;;;;;;14.80;9.40;;;14.20;99.90;;;;;;4993772;28;20035;-78
2023/05/13 00:07:30;;;;;;;17.67;9.57;;;14.20;99.90;;;;;;4974151;28;20102;-79
2023/05/13 00:09:55;;;;;;;15.13;9.73;;;14.20;99.90;;;;;;4975216;28;20029;-77
2023/05/13 00:12:21;;;;;;;14.90;9.43;;;14.20;99.90;;;;;;4972178;28;20137;-78
2023/05/13 00:14:47;;;;;;;14.63;9.70;;;14.30;99.90;;;;;;4992077;28;20034;-79
2023/05/13 00:17:12;;;;;;;18.52;9.73;;;14.20;99.90;;;;;;4989560;28;20092;-79
2023/05/13 00:19:38;;;;;;;14.57;8.88;;;14.20;99.90;;;;;;4974968;28;20065;-78
2023/05/13 00:22:04;;;;;;;14.80;9.48;;;14.10;99.90;;;;;;4991313;28;20066;-80
2023/05/13 00:24:30;;;;;;;14.02;9.27;;;14.00;99.90;;;;;;4989508;28;20026;-79
2023/05/13 00:26:55;;;;;;;19.52;10.23;;;14.10;99.90;;;;;;4974102;28;20058;-79
2023/05/13 00:29:21;;;;;;;17.52;10.30;;;14.00;99.90;;;;;;4992077;28;20130;-78
2023/05/13 00:31:46;;;;;;;17.17;10.32;;;14.00;99.90;;;;;;4991155;28;20504;-79
2023/05/13 00:34:12;;;;;;;17.15;10.15;;;14.00;99.90;;;;;;4991869;28;20019;-79
2023/05/13 00:36:37;;;;;;;18.38;10.77;;;14.00;99.90;;;;;;4973074;28;20072;-78
2023/05/13 00:39:03;;;;;;;17.25;9.63;;;13.90;99.90;;;;;;4975424;28;20023;-79
2023/05/13 00:41:29;;;;;;;17.38;10.95;;;13.90;99.90;;;;;;4975942;28;20046;-77
2023/05/13 00:43:58;;;;;;;18.48;10.93;;;13.80;99.90;;;;;;4972482;28;20551;-78
2023/05/13 00:46:24;;;;;;;17.50;10.23;;;13.80;99.90;;;;;;4991729;28;20030;-78
2023/05/13 00:48:50;;;;;;;17.48;11.02;;;13.80;99.90;;;;;;4991995;28;20035;-79
2023/05/13 00:51:17;;;;;;;15.75;10.85;;;13.80;99.90;;;;;;4992533;28;20026;-78
2023/05/13 00:53:44;;;;;;;20.20;11.10;;;13.90;99.90;;;;;;4988327;28;20045;-78
2023/05/13 00:56:09;;;;;;;19.13;10.32;;;13.80;99.90;;;;;;4974977;28;20037;-78
2023/05/13 00:58:35;;;;;;;17.17;10.23;;;13.60;99.90;;;;;;4972315;28;20031;-77
2023/05/13 01:01:24;;;;;;;13.75;10.02;;;13.50;99.90;;;;;;4974215;28;20042;-77
2023/05/13 01:04:03;;;;;;;19.38;10.65;;;13.60;99.90;;;;;;4971931;28;20023;-77
2023/05/13 01:06:35;;;;;;;18.75;10.80;;;13.60;99.90;;;;;;4992562;28;20018;-77
2023/05/13 01:09:24;;;;;;;20.02;10.85;;;13.70;99.90;;;;;;4991260;28;20042;-77
2023/05/13 01:11:52;;;;;;;19.70;11.40;;;13.60;99.90;;;;;;4988128;28;20403;-77
2023/05/13 01:14:23;;;;;;;23.02;11.25;;;13.50;99.90;;;;;;4990754;28;20030;-78
2023/05/13 01:16:57;;;;;;;17.45;10.95;;;13.50;99.90;;;;;;4990805;28;20014;-77
2023/05/13 01:19:28;;;;;;;19.70;11.05;;;13.50;99.90;;;;;;4973642;28;20027;-79
2023/05/13 01:21:54;;;;;;;16.88;11.13;;;13.40;99.90;;;;;;4972397;28;20040;-78
2023/05/13 01:24:20;;;;;;;18.42;11.32;;;13.40;99.90;;;;;;4989516;28;20023;-78
2023/05/13 01:26:45;;;;;;;19.38;11.88;;;13.40;99.90;;;;;;4973317;28;20029;-78
2023/05/13 01:29:11;;;;;;;22.42;11.50;;;13.40;99.90;;;;;;4973258;28;20508;-78
2023/05/13 01:31:38;;;;;;;16.13;10.90;;;13.40;99.90;;;;;;4990607;28;20027;-79
2023/05/13 01:34:04;;;;;;;15.30;10.48;;;13.30;99.90;;;;;;4971296;28;20031;-78
2023/05/13 01:36:31;;;;;;;22.25;11.32;;;13.40;99.90;;;;;;4973935;28;20057;-78
2023/05/13 01:38:58;;;;;;;18.52;11.55;;;13.40;99.90;;;;;;4973745;28;20090;-78
2023/05/13 01:41:25;;;;;;;19.15;11.43;;;13.30;99.90;;;;;;4972671;28;20022;-78
2023/05/13 01:43:50;;;;;;;18.95;10.98;;;13.30;99.90;;;;;;4971341;28;20026;-78
2023/05/13 01:46:17;;;;;;;18.95;12.13;;;13.20;99.90;;;;;;4971548;28;20624;-78
2023/05/13 01:48:42;;;;;;;22.00;11.55;;;13.30;99.90;;;;;;4990392;28;20035;-79
2023/05/13 01:51:08;;;;;;;19.75;11.82;;;13.10;99.90;;;;;;4987713;28;20031;-78
2023/05/13 01:53:34;;;;;;;17.90;11.02;;;13.10;99.90;;;;;;4971953;28;20050;-78
2023/05/13 01:55:59;;;;;;;16.20;10.95;;;13.10;99.90;;;;;;4972876;28;20049;-78
2023/05/13 01:58:25;;;;;;;18.70;11.20;;;13.10;99.90;;;;;;4971419;28;20022;-77
2023/05/13 02:00:50;;;;;;;19.83;11.60;;;13.10;99.90;;;;;;4989111;28;20424;-78
2023/05/13 02:03:16;;;;;;;16.08;11.40;;;13.10;99.90;;;;;;4973230;28;20057;-77
2023/05/13 02:05:41;;;;;;;18.17;11.23;;;13.00;99.90;;;;;;4970446;28;20041;-79
2023/05/13 02:08:07;;;;;;;19.50;10.98;;;13.00;99.90;;;;;;4988034;28;20058;-78
2023/05/13 02:10:33;;;;;;;17.35;11.93;;;12.90;99.90;;;;;;4989270;28;20049;-78
2023/05/13 02:12:59;;;;;;;18.45;11.20;;;12.90;99.90;;;;;;4988766;28;20109;-79
2023/05/13 02:15:24;;;;;;;19.55;11.38;;;12.90;99.90;;;;;;4988476;28;20476;-79
2023/05/13 02:17:50;;;;;;;18.88;11.63;;;12.80;99.90;;;;;;4972213;28;20030;-79
2023/05/13 02:20:15;;;;;;;17.27;11.48;;;12.80;99.90;;;;;;4973227;28;20026;-79
2023/05/13 02:22:41;;;;;;;17.48;11.68;;;12.90;99.90;;;;;;4971121;28;20030;-78
2023/05/13 02:25:07;;;;;;;16.63;10.98;;;12.80;99.90;;;;;;4989519;28;20034;-79
2023/05/13 02:27:33;;;;;;;17.95;11.23;;;12.80;99.90;;;;;;4988500;28;20015;-79
2023/05/13 02:29:58;;;;;;;20.58;11.40;;;12.80;99.90;;;;;;4970690;28;20085;-78
2023/05/13 02:32:24;;;;;;;21.67;12.35;;;12.90;99.90;;;;;;4973787;28;20085;-80
2023/05/13 02:34:49;;;;;;;20.92;12.00;;;12.70;99.90;;;;;;4972803;28;20023;-79
2023/05/13 02:37:16;;;;;;;18.98;11.88;;;12.70;99.90;;;;;;4971437;28;20495;-80
2023/05/13 02:39:41;;;;;;;17.65;11.52;;;12.70;99.90;;;;;;4987725;28;20033;-82
2023/05/13 02:42:07;;;;;;;19.27;12.13;;;12.60;99.90;;;;;;4972445;28;20026;-80
2023/05/13 02:44:32;;;;;;;15.82;12.13;;;12.60;99.90;;;;;;4973644;28;20035;-80
2023/05/13 02:46:58;;;;;;;23.42;11.95;;;12.70;99.90;;;;;;4971520;28;20053;-80
2023/05/13 02:49:23;;;;;;;17.67;11.63;;;12.60;99.90;;;;;;4990073;28;20496;-80
2023/05/13 02:51:49;;;;;;;17.73;12.15;;;12.50;99.90;;;;;;4988650;28;20048;-80
2023/05/13 02:54:15;;;;;;;19.70;12.45;;;12.50;99.90;;;;;;4972164;28;20038;-81
2023/05/13 02:56:40;;;;;;;22.45;12.18;;;12.50;99.90;;;;;;4970930;28;20027;-81
2023/05/13 02:59:06;;;;;;;18.23;11.48;;;12.50;99.90;;;;;;4970339;28;20030;-79
2023/05/13 03:01:31;;;;;;;18.73;11.93;;;12.50;99.90;;;;;;4971429;28;20049;-80
2023/05/13 03:03:57;;;;;;;18.20;11.90;;;12.40;99.90;;;;;;4972183;28;20026;-81
2023/05/13 03:06:22;;;;;;;17.85;11.35;;;12.50;99.90;;;;;;4972123;28;20077;-80
2023/05/13 03:08:48;;;;;;;22.75;12.65;;;12.40;99.90;;;;;;4972609;28;20054;-80
2023/05/13 03:11:13;;;;;;;23.23;11.93;;;12.40;99.90;;;;;;4971260;28;20138;-80
2023/05/13 03:13:39;;;;;;;20.88;12.23;;;12.30;99.90;;;;;;4969248;28;20070;-81
2023/05/13 03:16:05;;;;;;;18.27;11.70;;;12.30;99.90;;;;;;4971035;28;20030;-80
2023/05/13 03:18:31;;;;;;;16.35;12.20;;;12.30;99.90;;;;;;4971819;28;20022;-79
2023/05/13 03:20:57;;;;;;;20.70;11.88;;;12.30;99.90;;;;;;4973710;28;20019;-79
2023/05/13 03:23:22;;;;;;;21.17;12.50;;;12.30;99.90;;;;;;4987261;28;20097;-79
2023/05/13 03:25:48;;;;;;;16.95;12.23;;;12.20;99.90;;;;;;4990015;28;20019;-79
2023/05/13 03:28:13;;;;;;;17.77;11.93;;;12.30;99.90;;;;;;4991682;28;20042;-80
2023/05/13 03:30:39;;;;;;;21.40;12.50;;;12.20;99.90;;;;;;4995394;28;20058;-79
2023/05/13 03:33:05;;;;;;;28.88;12.23;;;12.20;99.90;;;;;;4995498;28;20035;-79
2023/05/13 03:35:30;;;;;;;21.88;13.05;;;12.20;99.90;;;;;;4977188;28;20034;-79
2023/05/13 03:37:56;;;;;;;18.45;13.00;;;12.10;99.90;;;;;;4995515;28;20030;-80
2023/05/13 03:40:21;;;;;;;17.67;12.48;;;12.10;99.90;;;;;;4977888;28;20158;-80
2023/05/13 03:42:47;;;;;;;20.98;13.23;;;12.10;99.90;;;;;;4977690;28;20026;-78
2023/05/13 03:45:12;;;;;;;20.05;13.15;;;12.10;99.90;;;;;;4978151;28;20030;-78
2023/05/13 03:47:38;;;;;;;19.23;12.52;;;12.00;99.90;;;;;;4977199;28;20026;-79
2023/05/13 03:50:04;;;;;;;20.80;12.35;;;12.00;99.90;;;;;;4995276;28;20022;-79
2023/05/13 03:52:30;;;;;;;21.23;12.48;;;12.00;99.90;;;;;;4995446;28;20083;-79
2023/05/13 03:54:55;;;;;;;23.40;12.55;;;11.90;99.90;;;;;;4977058;28;20121;-79
2023/05/13 03:57:21;;;;;;;23.23;13.82;;;12.00;99.90;;;;;;4976223;28;20027;-79
2023/05/13 03:59:46;;;;;;;19.65;12.40;;;12.00;99.90;;;;;;4975272;28;20037;-79
2023/05/13 04:02:12;;;;;;;18.83;12.85;;;11.90;99.90;;;;;;4976705;28;20019;-79
2023/05/13 04:04:37;;;;;;;21.05;12.85;;;11.90;99.90;;;;;;4976585;28;20037;-79
2023/05/13 04:07:03;;;;;;;22.25;13.13;;;11.80;99.90;;;;;;4972363;28;20094;-79
2023/05/13 04:09:29;;;;;;;17.85;12.90;;;11.80;99.90;;;;;;4975916;28;20035;-74
2023/05/13 04:11:54;;;;;;;18.50;13.27;;;11.80;99.90;;;;;;4991950;28;20033;-75
2023/05/13 04:14:20;;;;;;;25.52;12.57;;;11.80;99.90;;;;;;4975668;28;20031;-74
2023/05/13 04:16:46;;;;;;;20.08;13.35;;;11.80;99.90;;;;;;4977242;28;20031;-75
2023/05/13 04:19:11;;;;;;;19.73;12.50;;;11.80;99.90;;;;;;4993906;28;20568;-75
2023/05/13 04:21:37;;;;;;;24.88;12.65;;;11.70;99.90;;;;;;4993455;28;20097;-75
2023/05/13 04:24:02;;;;;;;23.55;12.90;;;11.70;99.90;;;;;;4994946;28;20059;-74
2023/05/13 04:26:28;;;;;;;19.98;12.55;;;11.80;99.90;;;;;;4995105;28;20026;-74
2023/05/13 04:28:54;;;;;;;19.23;12.57;;;11.80;99.90;;;;;;4977615;28;20046;-75
2023/05/13 04:31:20;;;;;;;27.17;12.93;;;11.80;99.90;;;;;;4994468;28;20134;-74
2023/05/13 04:33:45;;;;;;;23.40;13.07;;;11.80;99.90;;;;;;4977685;28;20034;-75
2023/05/13 04:36:11;;;;;;;18.92;12.60;;;11.80;99.90;;;;;;4994634;28;20022;-75
2023/05/13 04:38:36;;;;;;;20.63;12.65;;;11.80;99.90;;;;;;4994671;28;20035;-75
2023/05/13 04:41:02;;;;;;;17.50;13.32;;;11.80;99.90;;;;;;4994725;28;20045;-75
2023/05/13 04:43:28;;;;;;;20.67;12.70;;;11.80;99.90;;;;;;4976364;28;20034;-74
2023/05/13 04:45:54;;;;;;;18.40;12.52;;;11.90;99.90;;;;;;4994921;28;20077;-75
2023/05/13 04:48:20;;;;;;;22.15;12.75;;;11.90;99.90;;;;;;4977390;28;20046;-74
2023/05/13 04:50:46;;;;;;;21.15;12.77;;;11.90;99.90;;;;;;4993983;28;20015;-75
2023/05/13 04:53:12;;;;;;;21.30;13.52;;;11.80;99.90;;;;;;4976513;28;20046;-74
2023/05/13 04:55:38;;;;;;;20.67;12.85;;;11.90;99.90;;;;;;4994243;28;20518;-75
2023/05/13 04:58:03;;;;;;;20.77;13.48;;;11.90;99.90;;;;;;4994136;28;20039;-74
2023/05/13 05:00:29;;;;;;;23.52;12.75;;;11.90;99.90;;;;;;4976070;28;20019;-76
2023/05/13 05:02:55;;;;;;;18.77;12.80;;;11.90;99.90;;;;;;4994630;28;20018;-77
2023/05/13 05:05:21;;;;;;;18.58;12.82;;;11.90;99.90;;;;;;4976949;28;20400;-75
2023/05/13 05:07:46;;;;;;;16.15;12.52;;;12.00;99.90;;;;;;4993912;28;20023;-75
2023/05/13 05:10:14;;;;;;;22.13;12.77;;;12.10;99.90;;;;;;4994064;28;20022;-76
2023/05/13 05:12:39;;;;;;;24.10;12.45;;;12.10;99.90;;;;;;4993506;28;20057;-77
2023/05/13 05:15:10;;;;;;;22.00;12.68;;;12.10;99.90;;;;;;4993470;28;20082;-75
2023/05/13 05:17:35;;;;;;;21.38;13.52;;;12.20;99.90;;;;;;4976362;28;20035;-75
2023/05/13 05:20:01;;;;;;;18.27;12.43;;;12.20;99.90;;;;;;4976160;28;20062;-77
2023/05/13 05:22:26;;;;;;;22.80;13.30;;;12.20;99.90;;;;;;4994497;28;20551;-76
2023/05/13 05:24:52;;;;;;;22.50;12.80;;;12.20;99.90;;;;;;4975774;28;20034;-76
2023/05/13 05:27:18;;;;;;;22.48;12.88;;;12.20;99.90;;;;;;4990840;28;20086;-75
2023/05/13 05:29:43;;;;;;;20.73;12.90;;;12.20;99.90;;;;;;4990684;28;20038;-75
2023/05/13 05:32:09;;;;;;;23.92;13.70;;;12.30;99.90;;;;;;4992640;28;20104;-75
2023/05/13 05:34:35;;;;;;;22.33;12.20;;;12.30;99.90;;;;;;4992521;28;20027;-76
2023/05/13 05:37:00;;;;;;;23.27;12.40;;;12.30;99.90;;;;;;4975461;28;20043;-76
2023/05/13 05:39:26;;;;;;;17.02;12.65;;;12.30;99.90;;;;;;4975871;28;20027;-76
2023/05/13 05:41:52;;;;;;;19.02;13.32;;;12.40;99.90;;;;;;4975455;28;20041;-76
2023/05/13 05:44:18;;;;;;;21.02;12.43;;;12.40;99.90;;;;;;4976122;28;20022;-77
2023/05/13 05:46:43;;;;;;;17.55;12.35;;;12.50;99.90;;;;;;4992779;28;20027;-76
2023/05/13 05:49:09;;;;;;;19.02;12.73;;;12.50;99.90;;;;;;4992274;28;20064;-76
2023/05/13 05:51:34;;;;;;;19.60;11.38;;;12.60;99.90;;;;;;4974508;28;20042;-76
2023/05/13 05:54:01;;;;;;;21.65;12.73;;;12.60;99.90;;;;;;4976039;28;20030;-75
2023/05/13 05:56:26;;;;;;;19.23;12.52;;;12.60;99.90;;;;;;4987556;28;20031;-75
2023/05/13 05:58:52;;;;;;;26.38;12.15;;;12.70;99.90;;;;;;4974757;28;20030;-75
2023/05/13 06:01:17;;;;;;;21.55;12.07;;;12.70;99.90;;;;;;4991396;28;20022;-75
2023/05/13 06:03:44;;;;;;;22.05;11.93;;;12.80;99.90;;;;;;4972995;28;20034;-77
2023/05/13 06:06:10;;;;;;;20.92;12.23;;;12.80;99.90;;;;;;4993179;28;20022;-75
2023/05/13 06:08:35;;;;;;;23.77;12.80;;;12.90;99.90;;;;;;4972834;28;20042;-76
2023/05/13 06:11:01;;;;;;;19.40;11.65;;;12.90;99.90;;;;;;4992676;28;20038;-76
2023/05/13 06:13:26;;;;;;;19.85;12.18;;;12.90;99.90;;;;;;4974828;28;20042;-75
2023/05/13 06:15:52;;;;;;;20.92;11.77;;;13.00;99.90;;;;;;4974652;28;20038;-76
2023/05/13 06:18:18;;;;;;;18.95;11.15;;;13.00;99.90;;;;;;4975529;28;20047;-76
2023/05/13 06:20:43;;;;;;;18.15;11.90;;;13.10;99.90;;;;;;4992832;28;20031;-75
2023/05/13 06:23:09;;;;;;;24.58;11.15;;;13.10;99.90;;;;;;4992581;28;20053;-76
2023/05/13 06:25:35;;;;;;;17.67;10.10;;;13.20;99.90;;;;;;4974889;28;20023;-76
2023/05/13 06:28:01;;;;;;;17.00;10.38;;;13.30;99.90;;;;;;4975148;28;20022;-75
2023/05/13 06:30:27;;;;;;;17.88;10.50;;;13.30;99.90;;;;;;4975719;28;20033;-76
2023/05/13 06:32:53;;;;;;;19.98;10.13;;;13.40;99.90;;;;;;4975327;28;20117;-76
2023/05/13 06:35:19;;;;;;;15.25;10.27;;;13.50;99.90;;;;;;4975147;28;20102;-76
2023/05/13 06:37:45;;;;;;;21.45;10.73;;;13.60;99.90;;;;;;4992327;28;20034;-76
2023/05/13 06:40:11;;;;;;;16.02;10.27;;;13.70;99.90;;;;;;4975154;28;20395;-76
2023/05/13 06:42:39;;;;;;;17.58;9.65;;;13.80;99.90;;;;;;4992649;28;20031;-75
2023/05/13 06:45:06;;;;;;;22.23;10.13;;;13.90;99.90;;;;;;4991739;28;20069;-75
2023/05/13 06:47:32;;;;;;;18.40;9.15;;;14.00;99.90;;;;;;4992453;28;20038;-76
2023/05/13 06:49:58;;;;;;;16.98;9.80;;;14.10;99.90;;;;;;4992544;28;20038;-76
2023/05/13 06:52:23;;;;;;;17.92;9.18;;;14.20;99.90;;;;;;4974261;28;20034;-76
2023/05/13 06:54:49;;;;;;;15.10;9.40;;;14.20;99.90;;;;;;4975256;28;20054;-76
2023/05/13 06:57:14;;;;;;;15.05;8.88;;;14.40;99.90;;;;;;4974962;28;20019;-75
2023/05/13 06:59:40;;;;;;;17.77;8.73;;;14.40;99.90;;;;;;4992213;28;20047;-75
2023/05/13 07:02:08;;;;;;;15.85;9.10;;;14.60;99.90;;;;;;4992781;28;20444;-75
2023/05/13 07:04:34;;;;;;;14.38;8.65;;;14.60;99.90;;;;;;4996361;28;20026;-75
2023/05/13 07:06:59;;;;;;;14.90;8.52;;;14.90;99.90;;;;;;4995396;28;20106;-75
2023/05/13 07:09:26;;;;;;;15.85;8.32;;;14.90;99.90;;;;;;4995964;28;20038;-75
2023/05/13 07:11:51;;;;;;;16.42;8.98;;;15.00;99.90;;;;;;4978763;28;20392;-75
2023/05/13 07:14:17;;;;;;;12.77;8.25;;;15.00;99.90;;;;;;4995617;28;20106;-76
2023/05/13 07:16:43;;;;;;;10.70;7.65;;;15.10;99.90;;;;;;4991349;28;20053;-75
2023/05/13 07:19:08;;;;;;;14.45;8.07;;;15.20;99.90;;;;;;4978565;28;20054;-75
2023/05/13 07:21:34;;;;;;;14.98;8.18;;;15.30;99.90;;;;;;4995218;28;20073;-75
2023/05/13 07:24:01;;;;;;;12.32;7.90;;;15.40;99.90;;;;;;4996373;28;20034;-76
2023/05/13 07:26:26;;;;;;;14.75;8.27;;;15.60;99.90;;;;;;4978285;28;20031;-76
2023/05/13 07:28:52;;;;;;;15.23;8.32;;;15.60;99.90;;;;;;4977405;28;20042;-74
2023/05/13 07:31:17;;;;;;;14.05;7.90;;;15.60;99.90;;;;;;4978312;28;20041;-75
2023/05/13 07:33:43;;;;;;;11.45;7.45;;;15.70;99.90;;;;;;4978537;28;20030;-76
2023/05/13 07:36:09;;;;;;;19.52;8.98;;;15.80;99.90;;;;;;4977775;28;20074;-76
2023/05/13 07:38:34;;;;;;;13.40;7.82;;;15.80;99.90;;;;;;4995998;28;20031;-76
2023/05/13 07:41:00;;;;;;;11.50;8.10;;;16.00;99.90;;;;;;4977725;28;20019;-76
2023/05/13 07:43:26;;;;;;;14.23;7.93;;;16.00;99.90;;;;;;4995941;28;20141;-76
2023/05/13 07:45:52;;;;;;;15.93;8.00;;;16.00;99.90;;;;;;4995210;28;20047;-76
2023/05/13 07:48:18;;;;;;;13.32;7.78;;;16.20;99.90;;;;;;4995490;28;20090;-76
2023/05/13 07:50:46;;;;;;;15.35;7.28;;;16.30;99.90;;;;;;4975174;28;20953;-75
2023/05/13 07:53:11;;;;;;;15.80;7.55;;;16.50;99.90;;;;;;4981273;28;20026;-75
2023/05/13 07:55:37;;;;;;;15.02;7.97;;;16.60;99.90;;;;;;4992764;28;20085;-75
2023/05/13 07:58:03;;;;;;;11.30;7.10;;;16.80;99.90;;;;;;4993038;28;20019;-76
2023/05/13 08:00:28;;;;;;;15.70;8.02;;;16.90;99.90;;;;;;4990596;28;20023;-76
2023/05/13 08:02:54;;;;;;;11.45;7.30;;;16.90;99.90;;;;;;4992345;28;20078;-75
2023/05/13 08:05:20;;;;;;;11.63;6.63;;;17.00;99.90;;;;;;4975264;28;20030;-74
2023/05/13 08:07:46;;;;;;;11.60;6.90;;;17.10;99.90;;;;;;4994912;28;20089;-73
2023/05/13 08:10:12;;;;;;;13.02;7.10;;;17.20;99.90;;;;;;4990574;28;20108;-74
2023/05/13 08:12:39;;;;;;;15.73;7.32;;;17.30;99.90;;;;;;4976566;28;20506;-74
2023/05/13 08:15:06;;;;;;;12.77;7.07;;;17.30;99.90;;;;;;4993757;28;20019;-76
2023/05/13 08:17:32;;;;;;;10.57;7.60;;;17.40;99.90;;;;;;4975573;28;20475;-74
2023/05/13 08:19:57;;;;;;;12.20;6.43;;;17.40;99.90;;;;;;4976648;28;20030;-74
2023/05/13 08:22:24;;;;;;;11.38;6.90;;;17.40;99.90;;;;;;4976417;28;20033;-75
2023/05/13 08:24:49;;;;;;;11.48;6.63;;;17.50;99.90;;;;;;4994375;28;20446;-73
2023/05/13 08:27:15;;;;;;;13.55;6.93;;;17.70;99.90;;;;;;4994744;28;20086;-74
2023/05/13 08:29:41;;;;;;;10.48;6.50;;;17.80;99.90;;;;;;4976176;28;20046;-74
2023/05/13 08:32:07;;;;;;;12.13;6.30;;;18.00;99.90;;;;;;4994232;28;20026;-74
2023/05/13 08:34:32;;;;;;;16.95;7.18;;;18.10;99.90;;;;;;4994711;28;20027;-74
2023/05/13 08:36:58;;;;;;;14.05;6.90;;;18.20;99.90;;;;;;4992554;28;20381;-74
2023/05/13 08:39:24;;;;;;;11.43;6.95;;;18.40;99.90;;;;;;4993922;28;20023;-73
2023/05/13 08:41:51;;;;;;;14.10;6.78;;;18.50;99.90;;;;;;4992478;28;20033;-76
2023/05/13 08:44:19;;;;;;;11.52;6.97;;;18.60;99.90;;;;;;4974287;28;20062;-75
2023/05/13 08:46:56;;;;;;;12.77;7.13;;;18.80;99.90;;;;;;4992892;28;20014;-74
2023/05/13 08:49:22;;;;;;;14.27;6.43;;;19.00;99.90;;;;;;4992314;28;20030;-75
2023/05/13 08:51:48;;;;;;;13.35;7.25;;;19.10;99.90;;;;;;4972358;28;20022;-74
2023/05/13 08:54:15;;;;;;;17.40;7.20;;;19.30;99.90;;;;;;4974490;28;20043;-75
2023/05/13 08:56:41;;;;;;;11.63;5.93;;;19.50;99.90;;;;;;4993912;28;20018;-74
2023/05/13 08:59:06;;;;;;;12.45;6.50;;;19.60;99.90;;;;;;4993761;28;20042;-75
2023/05/13 09:01:32;;;;;;;13.02;7.00;;;19.80;99.90;;;;;;4975053;28;20161;-75
2023/05/13 09:04:03;;;;;;;10.50;6.40;;;19.80;99.90;;;;;;4992165;28;20081;-75
2023/05/13 09:06:28;;;;;;;10.75;6.10;;;19.90;99.90;;;;;;4991680;28;20034;-75
2023/05/13 09:08:55;;;;;;;13.07;6.00;;;20.00;99.90;;;;;;4991911;28;20049;-76
2023/05/13 09:11:20;;;;;;;15.93;6.63;;;20.00;99.90;;;;;;4974811;28;20034;-74
2023/05/13 09:14:00;;;;;;;9.18;6.30;;;20.10;99.90;;;;;;4993547;28;20181;-75
2023/05/13 09:16:27;;;;;;;12.70;7.20;;;20.10;99.90;;;;;;4994419;28;20100;-73
2023/05/13 09:19:02;;;;;;;13.32;6.65;;;20.20;99.90;;;;;;4993226;28;20038;-73
2023/05/13 09:21:34;;;;;;;13.18;6.75;;;20.30;99.90;;;;;;4992742;28;20041;-74
2023/05/13 09:24:10;;;;;;;13.43;6.53;;;20.30;99.90;;;;;;4993920;28;20387;-74
2023/05/13 09:26:37;;;;;;;11.75;6.65;;;20.30;99.90;;;;;;4991412;28;20114;-75
2023/05/13 09:29:16;;;;;;;11.90;6.10;;;20.40;99.90;;;;;;4990845;28;20051;-76
2023/05/13 09:31:47;;;;;;;15.90;6.47;;;20.40;99.90;;;;;;4971404;28;20067;-74
2023/05/13 09:34:13;;;;;;;11.05;6.50;;;20.40;99.90;;;;;;4991741;28;21257;-76
2023/05/13 09:36:40;;;;;;;10.57;5.57;;;20.50;99.90;;;;;;4990113;28;20029;-75
2023/05/13 09:39:05;;;;;;;15.43;6.28;;;20.50;99.90;;;;;;4972482;28;20030;-74
2023/05/13 09:41:32;;;;;;;10.75;6.38;;;20.60;99.90;;;;;;4990607;28;20030;-76
2023/05/13 09:44:01;;;;;;;13.38;6.07;;;20.70;99.90;;;;;;4974576;28;20044;-75
2023/05/13 09:46:27;;;;;;;12.05;6.00;;;20.80;99.90;;;;;;4972105;28;20030;-75
2023/05/13 09:49:00;;;;;;;15.75;5.72;;;20.80;99.90;;;;;;5074080;28;20911;-76
2023/05/13 09:51:27;;;;;;;12.73;6.20;;;20.90;99.90;;;;;;5077043;28;20086;-77
2023/05/13 09:53:53;;;;;;;12.38;5.97;;;21.00;99.90;;;;;;5078162;28;20040;-76
2023/05/13 09:56:22;;;;;;;14.40;5.97;;;21.00;99.90;;;;;;5078888;28;20017;-75
2023/05/13 09:58:51;;;;;;;18.20;6.03;;;21.10;99.90;;;;;;5076076;28;20096;-74
2023/05/13 10:01:18;;;;;;;11.95;6.00;;;21.20;99.90;;;;;;5076579;28;20025;-74
2023/05/13 10:03:44;;;;;;;9.63;6.03;;;21.30;99.90;;;;;;5078401;28;20092;-75
2023/05/13 10:06:10;;;;;;;9.68;5.72;;;21.30;99.90;;;;;;5078123;28;20028;-73
2023/05/13 10:08:38;;;;;;;10.38;5.75;;;21.40;99.90;;;;;;5075721;28;20041;-73
2023/05/13 10:11:05;;;;;;;10.60;6.57;;;21.50;99.90;;;;;;5093859;28;20081;-76
2023/05/13 10:13:33;;;;;;;15.00;6.55;;;21.60;99.90;;;;;;5077914;28;20020;-76
2023/05/13 10:15:59;;;;;;;11.30;6.20;;;21.60;99.90;;;;;;5078872;28;20725;-76
2023/05/13 10:18:24;;;;;;;10.35;6.72;;;21.80;99.90;;;;;;5078375;28;20024;-76
2023/05/13 10:20:51;;;;;;;18.48;6.20;;;21.80;99.90;;;;;;5077996;28;20035;-75
2023/05/13 10:23:22;;;;;;;12.63;6.35;;;21.90;99.90;;;;;;5077237;28;20032;-73
2023/05/13 10:25:49;;;;;;;14.85;5.88;;;22.00;99.90;;;;;;5075437;28;20057;-75
2023/05/13 10:28:18;;;;;;;9.73;5.57;;;22.00;99.90;;;;;;5077966;28;20474;-73
2023/05/13 10:30:43;;;;;;;11.88;5.15;;;22.10;99.90;;;;;;5077013;28;20021;-75
2023/05/13 10:33:09;;;;;;;13.25;6.00;;;22.10;99.90;;;;;;5076254;28;20036;-76
2023/05/13 10:35:49;;;;;;;11.48;5.75;;;22.20;99.90;;;;;;5076412;28;20075;-74
2023/05/13 10:38:25;;;;;;;10.95;5.82;;;22.30;99.90;;;;;;5075875;28;20040;-75
2023/05/13 10:41:00;;;;;;;10.25;5.80;;;22.40;99.90;;;;;;5075577;28;20024;-73
2023/05/13 10:43:30;;;;;;;9.60;5.47;;;22.40;99.90;;;;;;5074830;28;20036;-75
2023/05/13 10:45:59;;;;;;;12.35;5.65;;;22.40;99.90;;;;;;5076026;28;20032;-75
2023/05/13 10:48:24;;;;;;;8.43;5.60;;;22.50;99.90;;;;;;5075276;28;20048;-76
2023/05/13 10:50:55;;;;;;;9.20;5.70;;;22.50;99.90;;;;;;5074682;28;20501;-72
2023/05/13 10:53:34;;;;;;;11.98;5.70;;;22.60;99.90;;;;;;5076468;28;20048;-73
2023/05/13 10:56:01;;;;;;;15.70;5.57;;;22.70;99.90;;;;;;5075518;28;20104;-74
2023/05/13 10:58:32;;;;;;;13.25;5.15;;;22.70;99.90;;;;;;5071557;28;20032;-76
2023/05/13 11:01:18;;;;;;;9.82;5.43;;;22.80;99.90;;;;;;5065138;28;20488;-74
2023/05/13 11:03:51;;;;;;;20.45;8.43;;;22.90;99.90;;;;;;5061444;28;20048;-75
2023/05/13 11:06:35;;;;;;;11.70;5.43;;;23.10;99.90;;;;;;5063377;28;20033;-74
2023/05/13 11:09:10;;;;;;;16.35;6.03;;;23.20;99.90;;;;;;5061767;28;20048;-74
2023/05/13 11:11:36;;;;;;;9.00;4.68;;;23.10;99.90;;;;;;5060020;28;20085;-74
2023/05/13 11:14:16;;;;;;;9.68;4.82;;;22.90;99.90;;;;;;5064555;28;20052;-77
2023/05/13 11:16:47;;;;;;;16.00;5.30;;;22.70;99.90;;;;;;5059429;28;20168;-72
2023/05/13 11:19:27;;;;;;;6.78;4.80;;;22.60;99.90;;;;;;5056241;28;20040;-74
2023/05/13 11:21:55;;;;;;;11.18;5.10;;;22.70;99.90;;;;;;5061372;28;20499;-74
2023/05/13 11:24:27;;;;;;;8.38;5.28;;;22.90;99.90;;;;;;5061324;28;20036;-75
2023/05/13 11:26:55;;;;;;;16.23;6.13;;;23.10;99.90;;;;;;5064033;28;20028;-75
2023/05/13 11:29:34;;;;;;;13.13;5.18;;;23.20;99.90;;;;;;5062096;28;20044;-76
2023/05/13 11:32:02;;;;;;;12.48;5.03;;;23.40;99.90;;;;;;5062628;28;20029;-75
2023/05/13 11:34:29;;;;;;;9.75;4.55;;;23.60;99.90;;;;;;5063637;28;20017;-75
2023/05/13 11:37:02;;;;;;;10.25;5.05;;;23.80;99.90;;;;;;5062840;28;20051;-76
2023/05/13 11:39:28;;;;;;;10.00;5.00;;;23.90;99.90;;;;;;5063606;28;20025;-74
2023/05/13 11:42:00;;;;;;;11.88;5.38;;;24.10;99.90;;;;;;5062674;28;20029;-76
2023/05/13 11:44:26;;;;;;;11.35;5.07;;;24.20;99.90;;;;;;5060857;28;20032;-75
2023/05/13 11:46:54;;;;;;;11.50;5.13;;;24.30;99.90;;;;;;5062126;28;20033;-74
2023/05/13 11:49:39;;;;;;;20.98;4.80;;;24.30;99.90;;;;;;5063501;28;20044;-74
2023/05/13 11:52:10;;;;;;;9.48;4.97;;;24.30;99.90;;;;;;5060828;28;20032;-73
2023/05/13 11:54:43;;;;;;;15.43;5.43;;;24.40;99.90;;;;;;5060864;28;20477;-74
2023/05/13 11:57:33;;;;;;;7.60;4.65;;;24.50;99.90;;;;;;5061116;28;20036;-74
2023/05/13 12:00:00;;;;;;;8.52;4.60;;;24.40;99.90;;;;;;5060628;28;20033;-75
2023/05/13 12:02:28;;;;;;;11.13;4.82;;;24.40;99.90;;;;;;5063639;28;20025;-76
2023/05/13 12:04:55;;;;;;;11.80;4.78;;;24.40;99.90;;;;;;5062897;28;20021;-76
2023/05/13 12:07:25;;;;;;;9.32;4.90;;;24.50;99.90;;;;;;5060718;28;20037;-76
2023/05/13 12:09:51;;;;;;;8.23;4.55;;;24.60;99.90;;;;;;5058828;28;20033;-76
2023/05/13 12:12:18;;;;;;;9.80;4.35;;;24.70;99.90;;;;;;5061318;28;20025;-74
2023/05/13 12:14:56;;;;;;;9.75;4.22;;;24.80;99.90;;;;;;5060038;28;20060;-78
2023/05/13 12:17:22;;;;;;;7.25;4.07;;;24.90;99.90;;;;;;5061861;28;20615;-76
2023/05/13 12:20:13;;;;;;;9.52;4.00;;;24.70;99.90;;;;;;5062585;28;20024;-76
2023/05/13 12:22:42;;;;;;;8.93;4.05;;;24.40;99.90;;;;;;5062871;28;20039;-75
2023/05/13 12:25:46;;;;;;;11.18;4.50;;;24.30;99.90;;;;;;5062684;28;20048;-75
2023/05/13 12:28:22;;;;;;;9.33;3.90;;;24.10;99.90;;;;;;5060999;28;20040;-76
2023/05/13 12:30:56;;;;;;;9.25;4.55;;;23.90;99.90;;;;;;5062289;28;20029;-76
2023/05/13 12:33:23;;;;;;;11.43;4.25;;;24.00;99.90;;;;;;5062289;28;20040;-75